Latest Weather Observations for Cape Wessel

IDD60801

Issued at 5:31 pm CST Sunday 4 December 2016 (issued every 30 minutes, with the page automatically refreshed every 10 minutes)

About weather observations | Map of weather stations | Latest weather observations for NT | Other Formats
Station Details ID: 200786 Name: CAPE WESSEL Lat: -11.00 Lon: 136.76 Height: 18.0 m
Data from the previous 72 hours. | See also: Recent months at Cape Wessel
Date/Time
CST
Temp
°C
App
Temp
°C
Dew
Point
°C
Rel
Hum
%
Delta-T
°C
Wind Press
QNH
hPa
Press
MSL
hPa
Rain since
9am
mm
Dir  Spd
km/h
Gust
km/h
Spd
kts
Gust
kts
04/05:30pm 31.1 31.4 21.6 57 6.4 ESE 22 30 12 16 1007.8 1007.7 0.0
04/05:00pm 32.0 31.8 21.2 52 7.3 ESE 24 30 13 16 1007.6 1007.5 0.0
04/04:30pm 32.8 33.0 21.3 50 7.8 ESE 22 28 12 15 1007.6 1007.5 0.0
04/04:00pm 33.5 33.8 21.6 49 8.1 SE 22 28 12 15 1007.6 1007.5 0.0
04/03:30pm 34.0 33.9 21.4 47 8.6 ESE 24 30 13 16 1007.8 1007.7 0.0
04/03:00pm 34.0 33.5 20.7 45 8.9 ESE 24 30 13 16 1008.0 1007.9 0.0
04/02:30pm 34.6 34.4 22.0 48 8.6 ESE 26 32 14 17 1008.2 1008.1 0.0
04/02:00pm 35.4 35.6 22.0 45 9.2 ESE 24 30 13 16 1008.7 1008.6 0.0
04/01:30pm 34.6 34.0 21.3 46 9.0 ESE 26 33 14 18 1009.1 1009.0 0.0
04/01:00pm 34.5 34.6 21.9 48 8.6 ESE 24 30 13 16 1009.4 1009.3 0.0
04/12:30pm 34.6 34.2 21.6 46 8.9 ESE 26 33 14 18 1009.7 1009.6 0.0
04/12:00pm 35.2 35.3 22.5 47 8.8 ESE 26 33 14 18 1010.0 1009.9 0.0
04/11:30am 33.9 33.7 22.0 49 8.1 ESE 26 32 14 17 1010.2 1010.1 0.0
04/11:00am 34.0 33.3 21.1 47 8.7 ESE 26 33 14 18 1010.3 1010.2 0.0
04/10:30am 34.1 34.0 22.2 50 8.2 ESE 26 33 14 18 1010.7 1010.6 0.0
04/10:00am 33.0 33.2 22.1 52 7.4 ESE 24 32 13 17 1010.9 1010.8 0.0
04/09:30am 33.8 34.1 21.6 49 8.3 ESE 22 28 12 15 1010.9 1010.8 0.0
04/09:00am 32.6 33.0 21.8 53 7.3 E 22 28 12 15 1011.0 1010.9 -
04/08:30am 32.1 32.6 21.9 54 6.9 ESE 22 28 12 15 1010.9 1010.8 -
04/08:00am 30.7 31.2 21.2 57 6.4 E 20 26 11 14 1010.8 1010.7 -
04/07:30am 30.6 31.5 21.9 59 5.9 E 20 28 11 15 1010.5 1010.4 -
04/07:00am 29.8 30.7 22.0 63 5.3 E 20 26 11 14 1010.3 1010.2 -
04/06:30am 28.9 29.8 21.9 66 4.7 E 20 28 11 15 1009.9 1009.8 -
04/06:00am 28.0 28.7 21.5 67 4.3 E 20 24 11 13 1009.5 1009.4 -
04/05:30am 27.9 28.4 21.2 67 4.5 ESE 20 28 11 15 1009.2 1009.1 -
04/05:00am 28.0 28.6 21.1 66 4.6 E 19 24 10 13 1009.0 1008.9 -
04/04:30am 28.0 28.6 21.3 67 4.5 E 20 24 11 13 1008.7 1008.6 -
04/04:00am 27.8 27.9 20.4 64 4.9 ESE 20 28 11 15 1008.5 1008.4 -
04/03:30am 28.1 28.0 21.4 67 4.5 E 24 30 13 16 1008.4 1008.3 -
04/03:00am 28.0 28.9 22.0 70 4.0 ESE 20 24 11 13 1008.4 1008.3 -
04/02:30am 28.0 28.5 22.0 70 4.0 ESE 22 28 12 15 1008.5 1008.4 -
04/02:00am 28.2 29.6 22.9 73 3.6 E 20 26 11 14 1008.8 1008.7 -
04/01:30am 28.4 29.2 22.4 70 4.1 ESE 22 28 12 15 1009.1 1009.0 -
04/01:00am 28.3 29.7 22.5 71 3.9 ESE 19 24 10 13 1009.6 1009.5 -
04/12:30am 28.3 30.1 23.2 74 3.5 ESE 19 24 10 13 1010.0 1009.9 -
04/12:00am 28.6 29.9 22.3 68 4.3 SE 19 24 10 13 1010.6 1010.5 -
 
Date/Time
CST
Temp
°C
App
Temp
°C
Dew
Point
°C
Rel
Hum
%
Delta-T
°C
Wind Press
QNH
hPa
Press
MSL
hPa
Rain since
9am
mm
Dir  Spd
km/h
Gust
km/h
Spd
kts
Gust
kts
03/11:30pm 28.5 29.4 22.0 68 4.4 SE 20 24 11 13 1010.8 1010.7 -
03/11:00pm 28.7 29.6 22.0 67 4.5 ESE 20 26 11 14 1010.8 1010.7 -
03/10:30pm 29.0 29.0 21.7 64 4.9 ESE 24 28 13 15 1010.8 1010.7 -
03/10:00pm 29.0 29.8 22.5 68 4.4 ESE 22 30 12 16 1010.5 1010.4 -
03/09:00pm 29.1 28.7 21.6 64 5.0 ESE 26 32 14 17 1010.0 1009.9 0.0
03/08:30pm 29.1 28.7 21.6 64 5.0 ESE 26 32 14 17 1010.0 1009.9 0.0
03/08:00pm 29.2 29.3 21.9 64 4.9 ESE 24 30 13 16 1009.8 1009.7 0.0
03/07:30pm 29.6 31.0 22.8 67 4.6 ESE 20 28 11 15 1009.5 1009.4 0.0
03/07:00pm 29.3 29.6 21.5 63 5.2 ESE 22 28 12 15 1009.2 1009.1 0.0
03/06:30pm 29.5 29.5 21.7 63 5.3 ESE 24 30 13 16 1008.9 1008.8 0.0
03/06:00pm 30.6 31.0 21.7 59 6.0 ESE 22 26 12 14 1008.6 1008.5 0.0
03/05:30pm 31.5 31.5 21.7 56 6.6 ESE 24 30 13 16 1008.4 1008.3 0.0
03/05:00pm 32.4 33.1 22.2 55 7.0 ESE 22 30 12 16 1008.4 1008.3 0.0
03/04:30pm 32.6 32.6 22.4 55 7.0 ESE 26 33 14 18 1008.1 1008.0 0.0
03/04:00pm 33.3 33.2 21.5 50 8.0 ESE 24 30 13 16 1008.2 1008.1 0.0
03/03:30pm 34.3 34.8 22.7 50 8.0 E 24 30 13 16 1008.3 1008.2 0.0
03/03:00pm 34.6 34.5 22.3 48 8.5 ESE 26 32 14 17 1008.6 1008.5 0.0
03/02:30pm 35.1 34.7 22.4 47 8.8 E 28 33 15 18 1008.8 1008.7 0.0
03/02:00pm 36.0 36.1 22.5 45 9.3 E 26 33 14 18 1009.1 1009.0 0.0
03/01:30pm 35.3 34.7 21.9 45 9.2 E 28 35 15 19 1009.4 1009.3 0.0
03/01:00pm 35.5 34.6 21.4 44 9.6 E 28 33 15 18 1009.9 1009.8 0.0
03/12:30pm 35.4 34.6 21.6 44 9.4 E 28 35 15 19 1010.2 1010.1 0.0
03/12:00pm 35.7 36.0 22.3 46 9.2 ESE 24 32 13 17 1010.5 1010.4 0.0
03/11:30am 35.3 35.4 22.6 47 8.8 E 26 32 14 17 1010.8 1010.7 0.0
03/11:00am 35.3 35.8 22.6 47 8.8 E 24 32 13 17 1010.9 1010.8 0.0
03/10:30am 34.2 34.3 21.9 48 8.4 ESE 24 32 13 17 1011.2 1011.1 0.0
03/10:00am 33.9 34.6 22.3 50 8.0 E 22 28 12 15 1011.4 1011.3 0.0
03/09:30am 33.9 35.2 22.7 52 7.7 E 20 28 11 15 1011.4 1011.3 0.0
03/09:00am 33.5 34.9 22.9 53 7.3 E 20 26 11 14 1011.5 1011.4 0.0
03/08:30am 32.7 34.3 23.3 57 6.5 E 20 26 11 14 1011.2 1011.1 0.0
03/08:00am 32.1 34.1 23.6 60 5.9 E 19 24 10 13 1010.9 1010.8 0.0
03/07:30am 30.6 32.2 23.3 65 5.0 E 20 26 11 14 1010.5 1010.4 0.0
03/07:00am 29.8 31.3 23.0 67 4.7 E 20 24 11 13 1010.5 1010.4 0.0
03/06:30am 28.7 30.6 23.4 73 3.6 E 19 24 10 13 1010.2 1010.1 0.0
03/06:00am 28.0 29.5 22.7 73 3.6 E 19 22 10 12 1009.9 1009.8 0.0
03/05:30am 27.7 30.1 22.9 75 3.3 E 15 20 8 11 1009.7 1009.6 0.0
03/05:00am 27.7 29.5 22.6 74 3.5 E 17 19 9 10 1009.4 1009.3 0.0
03/04:30am 27.6 29.5 22.8 75 3.3 E 17 20 9 11 1009.3 1009.2 0.0
03/04:00am 27.5 29.7 23.3 78 2.9 E 17 19 9 10 1009.1 1009.0 0.0
03/03:30am 26.7 29.6 22.5 78 2.8 ENE 11 13 6 7 1009.1 1009.0 0.0
03/03:00am 26.9 30.3 22.7 78 2.8 ENE 9 13 5 7 1009.2 1009.1 0.0
03/02:30am 27.5 30.4 23.1 77 3.0 ENE 13 17 7 9 1009.1 1009.0 0.0
03/02:00am 27.7 29.9 23.3 77 3.0 ENE 17 20 9 11 1009.0 1008.9 0.0
03/01:30am 27.7 29.9 23.3 77 3.0 E 17 19 9 10 1009.2 1009.1 0.0
03/01:00am 28.0 30.4 23.6 77 3.0 E 17 20 9 11 1009.7 1009.6 0.0
03/12:30am 28.1 30.4 23.5 76 3.2 E 17 22 9 12 1010.0 1009.9 0.0
03/12:00am 28.3 29.6 23.4 75 3.4 E 22 28 12 15 1010.2 1010.1 0.0
 
Date/Time
CST
Temp
°C
App
Temp
°C
Dew
Point
°C
Rel
Hum
%
Delta-T
°C
Wind Press
QNH
hPa
Press
MSL
hPa
Rain since
9am
mm
Dir  Spd
km/h
Gust
km/h
Spd
kts
Gust
kts
02/11:30pm 28.4 30.2 23.5 75 3.4 E 20 26 11 14 1010.5 1010.4 0.0
02/11:00pm 28.5 30.2 23.4 74 3.5 E 20 26 11 14 1010.4 1010.3 0.0
02/10:30pm 28.4 30.0 23.3 74 3.5 E 20 24 11 13 1010.3 1010.2 0.0
02/10:00pm 28.5 30.4 23.4 74 3.5 E 19 20 10 11 1010.4 1010.3 0.0
02/09:30pm 28.6 30.0 22.8 71 4.0 E 20 26 11 14 1009.9 1009.8 0.0
02/09:00pm 28.9 30.4 23.1 71 4.0 E 20 26 11 14 1009.7 1009.6 0.0
02/08:30pm 29.0 30.7 23.0 70 4.1 E 19 24 10 13 1009.4 1009.3 0.0
02/08:00pm 29.0 30.3 22.7 69 4.3 E 20 26 11 14 1009.2 1009.1 0.0
02/07:30pm 29.2 30.8 23.2 70 4.1 E 20 26 11 14 1008.8 1008.7 0.0
02/07:00pm 29.2 31.0 23.6 72 3.9 E 20 26 11 14 1008.6 1008.5 0.0
02/06:30pm 29.6 31.6 24.0 72 3.9 E 20 24 11 13 1008.5 1008.4 0.0
02/06:00pm 30.2 31.9 23.4 67 4.7 E 20 24 11 13 1008.4 1008.3 0.0
02/05:30pm 31.5 33.7 23.9 64 5.3 E 19 24 10 13 1008.1 1008.0 0.0
02/05:00pm 32.2 34.3 23.7 61 5.9 E 19 24 10 13 1008.0 1007.9 0.0
02/04:30pm 32.9 35.2 24.4 61 6.0 ENE 20 26 11 14 1007.8 1007.7 0.0
02/04:00pm 34.1 36.8 24.7 58 6.6 E 19 24 10 13 1008.0 1007.9 0.0
02/03:30pm 33.6 35.2 23.3 55 7.2 ENE 20 26 11 14 1008.3 1008.2 0.0
02/03:00pm 34.4 36.2 24.3 55 7.1 ENE 22 28 12 15 1008.5 1008.4 0.0
02/02:30pm 32.5 34.3 24.3 62 5.8 E 22 30 12 16 1008.6 1008.5 0.0
02/02:00pm 35.3 37.3 23.9 51 8.0 ENE 20 26 11 14 1009.1 1009.0 0.0
02/01:30pm 35.4 38.1 25.0 55 7.4 ENE 20 28 11 15 1009.5 1009.4 0.0
02/01:00pm 35.0 38.5 25.5 58 6.8 ENE 17 22 9 12 1009.8 1009.7 0.0
02/12:30pm 34.1 37.5 24.1 56 7.0 ENE 13 17 7 9 1010.1 1010.0 0.0
02/12:00pm 35.0 38.7 24.6 55 7.4 NE 13 17 7 9 1010.4 1010.3 0.0
02/11:30am 34.5 37.9 24.1 54 7.3 ENE 13 17 7 9 1010.8 1010.7 0.0
02/11:00am 34.0 37.4 24.0 56 7.0 NE 13 17 7 9 1011.0 1010.9 0.0
02/10:30am 34.2 37.5 23.9 55 7.2 NE 13 17 7 9 1011.2 1011.1 0.0
02/10:00am 33.5 36.8 23.8 57 6.8 NE 13 15 7 8 1011.3 1011.2 0.0
02/09:30am 33.0 36.0 23.3 56 6.7 ENE 13 15 7 8 1011.4 1011.3 0.0
02/09:00am 32.8 36.1 23.2 57 6.6 ENE 11 15 6 8 1011.0 1010.9 0.0
02/08:30am 32.0 34.8 23.0 59 6.2 ENE 13 15 7 8 1010.9 1010.8 0.0
02/08:00am 32.1 34.6 23.1 59 6.2 ENE 15 20 8 11 1010.5 1010.4 0.0
02/07:30am 31.3 34.0 23.4 63 5.5 E 15 20 8 11 1010.4 1010.3 0.0
02/07:00am 30.2 32.8 23.9 69 4.4 E 17 20 9 11 1010.3 1010.2 0.0
02/06:30am 28.9 32.4 24.2 76 3.3 E 13 17 7 9 1010.1 1010.0 0.0
02/06:00am 27.8 31.0 23.0 75 3.3 ENE 11 13 6 7 1009.5 1009.4 0.0
02/05:30am 28.1 30.4 23.5 76 3.2 ENE 17 20 9 11 1009.1 1009.0 0.0
02/05:00am 27.9 30.8 23.1 75 3.3 ENE 13 17 7 9 1008.9 1008.8 0.0
02/04:30am 27.8 31.2 23.4 77 3.0 ENE 11 15 6 8 1008.9 1008.8 0.0
02/04:00am 28.0 31.1 23.6 77 3.0 ENE 13 17 7 9 1008.6 1008.5 0.0
02/03:30am 28.1 31.2 23.5 76 3.2 ENE 13 17 7 9 1008.3 1008.2 0.0
02/03:00am 28.2 31.5 23.8 77 3.0 ENE 13 19 7 10 1008.5 1008.4 0.0
02/02:30am 28.2 30.7 23.8 77 3.0 NE 17 19 9 10 1008.0 1007.9 0.0
02/02:00am 28.3 31.4 24.1 78 2.9 NE 15 20 8 11 1008.1 1008.0 0.0
02/01:30am 28.3 31.4 24.1 78 2.9 ENE 15 17 8 9 1008.3 1008.2 0.0
02/01:00am 28.4 31.8 24.0 77 3.0 ENE 13 17 7 9 1008.7 1008.6 0.0
02/12:30am 28.5 31.6 23.6 75 3.4 ENE 13 17 7 9 1009.0 1008.9 0.0
02/12:00am 28.7 31.6 23.8 75 3.4 ENE 15 19 8 10 1009.2 1009.1 0.0
 
Date/Time
CST
Temp
°C
App
Temp
°C
Dew
Point
°C
Rel
Hum
%
Delta-T
°C
Wind Press
QNH
hPa
Press
MSL
hPa
Rain since
9am
mm
Dir  Spd
km/h
Gust
km/h
Spd
kts
Gust
kts
01/11:30pm 28.8 31.6 23.7 74 3.5 ENE 15 19 8 10 1009.5 1009.4 0.0
01/11:00pm 28.8 32.2 24.1 76 3.3 ENE 13 17 7 9 1009.7 1009.6 0.0
01/10:30pm 28.8 32.4 24.4 77 3.1 ENE 13 17 7 9 1009.6 1009.5 0.0
01/10:00pm 28.9 32.2 23.8 74 3.5 ENE 13 15 7 8 1009.6 1009.5 0.0
01/09:30pm 29.0 32.1 24.1 75 3.4 ENE 15 19 8 10 1009.4 1009.3 0.0
01/09:00pm 29.1 31.8 24.2 75 3.4 ENE 17 20 9 11 1009.1 1009.0 0.0
01/08:30pm 29.1 32.6 24.9 78 2.9 NE 15 20 8 11 1008.5 1008.4 0.0
01/08:00pm 29.1 32.9 24.7 77 3.1 NE 13 17 7 9 1008.1 1008.0 0.0
01/07:30pm 29.2 32.1 24.5 76 3.3 NE 17 20 9 11 1007.8 1007.7 0.0
01/07:00pm 29.3 32.2 24.4 75 3.4 NE 17 19 9 10 1007.7 1007.6 0.0
01/06:30pm 29.6 33.1 24.2 73 3.8 NNE 13 15 7 8 1007.5 1007.4 0.0
01/06:00pm 30.4 33.2 23.6 67 4.7 NE 15 19 8 10 1007.1 1007.0 0.0

Other Formats:

Comma delimited format used in spreadsheet applications
http://www.bom.gov.au/fwo/IDD60801/IDD60801.94147.axf

JavaScript Object Notation format (JSON) in row-major order
http://www.bom.gov.au/fwo/IDD60801/IDD60801.94147.json